sensor_id;sensor_type;location;lat;lon;timestamp;P1;durP1;ratioP1;P2;durP2;ratioP2
12956;SDS011;6543;48.836;10.092;2022-10-31T00:02:02;8.53;;;4.83;;
12956;SDS011;6543;48.836;10.092;2022-10-31T00:04:30;11.97;;;4.57;;
12956;SDS011;6543;48.836;10.092;2022-10-31T00:06:57;11.17;;;4.97;;
12956;SDS011;6543;48.836;10.092;2022-10-31T00:09:24;17.43;;;5.00;;
12956;SDS011;6543;48.836;10.092;2022-10-31T00:11:51;11.93;;;4.93;;
12956;SDS011;6543;48.836;10.092;2022-10-31T00:14:17;12.50;;;4.73;;
12956;SDS011;6543;48.836;10.092;2022-10-31T00:16:44;11.77;;;4.87;;
12956;SDS011;6543;48.836;10.092;2022-10-31T00:19:11;12.83;;;4.00;;
12956;SDS011;6543;48.836;10.092;2022-10-31T00:21:39;12.37;;;4.97;;
12956;SDS011;6543;48.836;10.092;2022-10-31T00:24:06;10.80;;;4.80;;
12956;SDS011;6543;48.836;10.092;2022-10-31T00:26:33;9.90;;;4.33;;
12956;SDS011;6543;48.836;10.092;2022-10-31T00:29:00;14.13;;;5.73;;
12956;SDS011;6543;48.836;10.092;2022-10-31T00:31:27;11.17;;;4.23;;
12956;SDS011;6543;48.836;10.092;2022-10-31T00:33:54;6.63;;;3.90;;
12956;SDS011;6543;48.836;10.092;2022-10-31T00:36:21;11.43;;;4.80;;
12956;SDS011;6543;48.836;10.092;2022-10-31T00:38:49;12.67;;;4.47;;
12956;SDS011;6543;48.836;10.092;2022-10-31T00:41:17;10.83;;;4.90;;
12956;SDS011;6543;48.836;10.092;2022-10-31T00:43:44;7.33;;;4.40;;
12956;SDS011;6543;48.836;10.092;2022-10-31T00:46:11;8.77;;;4.27;;
12956;SDS011;6543;48.836;10.092;2022-10-31T00:48:38;14.43;;;5.23;;
12956;SDS011;6543;48.836;10.092;2022-10-31T00:51:05;10.93;;;5.17;;
12956;SDS011;6543;48.836;10.092;2022-10-31T00:53:33;13.10;;;5.10;;
12956;SDS011;6543;48.836;10.092;2022-10-31T00:56:01;6.50;;;3.80;;
12956;SDS011;6543;48.836;10.092;2022-10-31T00:58:29;12.73;;;4.43;;
12956;SDS011;6543;48.836;10.092;2022-10-31T01:00:55;8.60;;;4.53;;
12956;SDS011;6543;48.836;10.092;2022-10-31T01:03:23;13.63;;;4.60;;
12956;SDS011;6543;48.836;10.092;2022-10-31T01:05:57;7.57;;;4.20;;
12956;SDS011;6543;48.836;10.092;2022-10-31T01:08:25;8.17;;;4.63;;
12956;SDS011;6543;48.836;10.092;2022-10-31T01:11:05;9.60;;;4.20;;
12956;SDS011;6543;48.836;10.092;2022-10-31T01:13:33;9.10;;;4.70;;
12956;SDS011;6543;48.836;10.092;2022-10-31T01:16:01;13.83;;;5.00;;
12956;SDS011;6543;48.836;10.092;2022-10-31T01:18:30;11.13;;;5.53;;
12956;SDS011;6543;48.836;10.092;2022-10-31T01:21:01;6.70;;;4.70;;
12956;SDS011;6543;48.836;10.092;2022-10-31T01:23:30;10.53;;;4.70;;
12956;SDS011;6543;48.836;10.092;2022-10-31T01:25:58;8.67;;;4.47;;
12956;SDS011;6543;48.836;10.092;2022-10-31T01:28:31;11.17;;;4.77;;
12956;SDS011;6543;48.836;10.092;2022-10-31T01:31:02;9.83;;;4.73;;
12956;SDS011;6543;48.836;10.092;2022-10-31T01:33:30;8.23;;;4.60;;
12956;SDS011;6543;48.836;10.092;2022-10-31T01:35:57;10.30;;;5.00;;
12956;SDS011;6543;48.836;10.092;2022-10-31T01:38:25;8.97;;;4.70;;
12956;SDS011;6543;48.836;10.092;2022-10-31T01:40:52;7.13;;;4.87;;
12956;SDS011;6543;48.836;10.092;2022-10-31T01:43:20;8.40;;;4.53;;
12956;SDS011;6543;48.836;10.092;2022-10-31T01:45:49;15.67;;;5.70;;
12956;SDS011;6543;48.836;10.092;2022-10-31T01:48:19;11.57;;;4.63;;
12956;SDS011;6543;48.836;10.092;2022-10-31T01:50:51;13.40;;;5.07;;
12956;SDS011;6543;48.836;10.092;2022-10-31T01:53:20;12.40;;;5.60;;
12956;SDS011;6543;48.836;10.092;2022-10-31T01:55:48;11.20;;;4.83;;
12956;SDS011;6543;48.836;10.092;2022-10-31T01:58:16;13.53;;;5.93;;
12956;SDS011;6543;48.836;10.092;2022-10-31T02:00:49;11.80;;;5.70;;
12956;SDS011;6543;48.836;10.092;2022-10-31T02:03:20;7.60;;;4.80;;
12956;SDS011;6543;48.836;10.092;2022-10-31T02:05:48;12.73;;;5.50;;
12956;SDS011;6543;48.836;10.092;2022-10-31T02:08:16;6.03;;;4.80;;
12956;SDS011;6543;48.836;10.092;2022-10-31T02:10:47;13.93;;;5.00;;
12956;SDS011;6543;48.836;10.092;2022-10-31T02:13:14;10.33;;;5.60;;
12956;SDS011;6543;48.836;10.092;2022-10-31T02:15:44;10.37;;;4.60;;
12956;SDS011;6543;48.836;10.092;2022-10-31T02:18:13;16.17;;;5.53;;
12956;SDS011;6543;48.836;10.092;2022-10-31T02:20:42;14.53;;;6.10;;
12956;SDS011;6543;48.836;10.092;2022-10-31T02:23:33;10.73;;;5.40;;
12956;SDS011;6543;48.836;10.092;2022-10-31T02:26:31;8.97;;;5.17;;
12956;SDS011;6543;48.836;10.092;2022-10-31T02:32:26;6.00;;;4.40;;
12956;SDS011;6543;48.836;10.092;2022-10-31T02:34:58;13.13;;;4.87;;
12956;SDS011;6543;48.836;10.092;2022-10-31T02:37:35;41.10;;;19.00;;
12956;SDS011;6543;48.836;10.092;2022-10-31T02:40:05;29.50;;;13.00;;
12956;SDS011;6543;48.836;10.092;2022-10-31T02:42:42;28.53;;;12.73;;
12956;SDS011;6543;48.836;10.092;2022-10-31T02:45:17;20.17;;;8.67;;
12956;SDS011;6543;48.836;10.092;2022-10-31T02:47:53;11.10;;;5.50;;
12956;SDS011;6543;48.836;10.092;2022-10-31T02:50:25;11.20;;;5.37;;
12956;SDS011;6543;48.836;10.092;2022-10-31T02:52:54;10.00;;;4.70;;
12956;SDS011;6543;48.836;10.092;2022-10-31T02:58:17;15.13;;;5.67;;
12956;SDS011;6543;48.836;10.092;2022-10-31T03:00:49;9.90;;;4.63;;
12956;SDS011;6543;48.836;10.092;2022-10-31T03:03:29;12.17;;;4.67;;
12956;SDS011;6543;48.836;10.092;2022-10-31T03:06:02;8.97;;;4.17;;
12956;SDS011;6543;48.836;10.092;2022-10-31T03:08:35;6.73;;;4.40;;
12956;SDS011;6543;48.836;10.092;2022-10-31T03:11:08;8.60;;;4.37;;
12956;SDS011;6543;48.836;10.092;2022-10-31T03:13:38;10.47;;;4.57;;
12956;SDS011;6543;48.836;10.092;2022-10-31T03:16:09;10.60;;;4.07;;
12956;SDS011;6543;48.836;10.092;2022-10-31T03:18:42;8.83;;;4.47;;
12956;SDS011;6543;48.836;10.092;2022-10-31T03:21:16;5.83;;;4.30;;
12956;SDS011;6543;48.836;10.092;2022-10-31T03:23:47;7.83;;;4.33;;
12956;SDS011;6543;48.836;10.092;2022-10-31T03:26:16;8.90;;;4.50;;
12956;SDS011;6543;48.836;10.092;2022-10-31T03:28:46;11.63;;;4.97;;
12956;SDS011;6543;48.836;10.092;2022-10-31T03:31:19;7.13;;;4.63;;
12956;SDS011;6543;48.836;10.092;2022-10-31T03:33:52;12.87;;;5.73;;
12956;SDS011;6543;48.836;10.092;2022-10-31T03:36:22;9.73;;;5.33;;
12956;SDS011;6543;48.836;10.092;2022-10-31T03:38:50;13.03;;;5.23;;
12956;SDS011;6543;48.836;10.092;2022-10-31T03:41:18;9.07;;;4.83;;
12956;SDS011;6543;48.836;10.092;2022-10-31T03:43:54;16.10;;;4.87;;
12956;SDS011;6543;48.836;10.092;2022-10-31T03:46:24;14.53;;;5.13;;
12956;SDS011;6543;48.836;10.092;2022-10-31T03:48:52;8.53;;;4.40;;
12956;SDS011;6543;48.836;10.092;2022-10-31T03:51:20;6.77;;;4.50;;
12956;SDS011;6543;48.836;10.092;2022-10-31T03:53:52;11.37;;;4.70;;
12956;SDS011;6543;48.836;10.092;2022-10-31T03:56:25;11.47;;;4.80;;
12956;SDS011;6543;48.836;10.092;2022-10-31T03:58:58;13.27;;;5.90;;
12956;SDS011;6543;48.836;10.092;2022-10-31T04:01:28;9.90;;;4.33;;
12956;SDS011;6543;48.836;10.092;2022-10-31T04:03:59;10.10;;;4.90;;
12956;SDS011;6543;48.836;10.092;2022-10-31T04:06:27;12.43;;;4.90;;
12956;SDS011;6543;48.836;10.092;2022-10-31T04:08:57;7.30;;;5.13;;
12956;SDS011;6543;48.836;10.092;2022-10-31T04:11:28;10.60;;;5.90;;
12956;SDS011;6543;48.836;10.092;2022-10-31T04:13:59;14.43;;;5.90;;
12956;SDS011;6543;48.836;10.092;2022-10-31T04:16:28;12.23;;;5.17;;
12956;SDS011;6543;48.836;10.092;2022-10-31T04:18:54;8.87;;;4.37;;
12956;SDS011;6543;48.836;10.092;2022-10-31T04:21:28;7.67;;;4.60;;
12956;SDS011;6543;48.836;10.092;2022-10-31T04:23:55;8.63;;;4.80;;
12956;SDS011;6543;48.836;10.092;2022-10-31T04:26:23;10.30;;;4.90;;
12956;SDS011;6543;48.836;10.092;2022-10-31T04:28:50;9.10;;;5.00;;
12956;SDS011;6543;48.836;10.092;2022-10-31T04:31:17;7.27;;;4.37;;
12956;SDS011;6543;48.836;10.092;2022-10-31T04:33:44;7.40;;;4.40;;
12956;SDS011;6543;48.836;10.092;2022-10-31T04:36:10;10.00;;;5.13;;
12956;SDS011;6543;48.836;10.092;2022-10-31T04:38:39;7.93;;;5.00;;
12956;SDS011;6543;48.836;10.092;2022-10-31T04:41:05;10.60;;;5.63;;
12956;SDS011;6543;48.836;10.092;2022-10-31T04:43:32;11.23;;;4.57;;
12956;SDS011;6543;48.836;10.092;2022-10-31T04:45:59;10.43;;;4.97;;
12956;SDS011;6543;48.836;10.092;2022-10-31T04:48:26;8.00;;;4.43;;
12956;SDS011;6543;48.836;10.092;2022-10-31T04:50:57;7.70;;;4.30;;
12956;SDS011;6543;48.836;10.092;2022-10-31T04:53:25;8.67;;;4.70;;
12956;SDS011;6543;48.836;10.092;2022-10-31T04:55:53;8.80;;;4.27;;
12956;SDS011;6543;48.836;10.092;2022-10-31T04:58:20;9.77;;;4.80;;
12956;SDS011;6543;48.836;10.092;2022-10-31T05:00:47;7.77;;;4.60;;
12956;SDS011;6543;48.836;10.092;2022-10-31T05:03:17;12.90;;;5.00;;
12956;SDS011;6543;48.836;10.092;2022-10-31T05:05:44;9.30;;;4.57;;
12956;SDS011;6543;48.836;10.092;2022-10-31T05:08:11;7.07;;;5.43;;
12956;SDS011;6543;48.836;10.092;2022-10-31T05:10:38;10.63;;;5.67;;
12956;SDS011;6543;48.836;10.092;2022-10-31T05:13:07;8.80;;;5.03;;
12956;SDS011;6543;48.836;10.092;2022-10-31T05:15:34;12.43;;;5.53;;
12956;SDS011;6543;48.836;10.092;2022-10-31T05:18:01;12.63;;;4.83;;
12956;SDS011;6543;48.836;10.092;2022-10-31T05:20:28;10.57;;;5.20;;
12956;SDS011;6543;48.836;10.092;2022-10-31T05:22:57;9.13;;;5.27;;
12956;SDS011;6543;48.836;10.092;2022-10-31T05:25:25;10.50;;;5.40;;
12956;SDS011;6543;48.836;10.092;2022-10-31T05:27:53;10.03;;;5.77;;
12956;SDS011;6543;48.836;10.092;2022-10-31T05:30:23;9.70;;;5.57;;
12956;SDS011;6543;48.836;10.092;2022-10-31T05:32:51;10.73;;;5.23;;
12956;SDS011;6543;48.836;10.092;2022-10-31T05:35:19;12.53;;;5.70;;
12956;SDS011;6543;48.836;10.092;2022-10-31T05:37:47;12.80;;;6.23;;
12956;SDS011;6543;48.836;10.092;2022-10-31T05:40:16;10.77;;;4.83;;
12956;SDS011;6543;48.836;10.092;2022-10-31T05:42:44;13.07;;;5.17;;
12956;SDS011;6543;48.836;10.092;2022-10-31T05:45:12;14.17;;;5.80;;
12956;SDS011;6543;48.836;10.092;2022-10-31T05:47:41;11.90;;;5.17;;
12956;SDS011;6543;48.836;10.092;2022-10-31T05:50:08;13.73;;;6.13;;
12956;SDS011;6543;48.836;10.092;2022-10-31T05:52:36;9.53;;;5.40;;
12956;SDS011;6543;48.836;10.092;2022-10-31T05:55:03;9.27;;;4.73;;
12956;SDS011;6543;48.836;10.092;2022-10-31T05:57:31;8.63;;;5.77;;
12956;SDS011;6543;48.836;10.092;2022-10-31T05:59:59;11.23;;;5.20;;
12956;SDS011;6543;48.836;10.092;2022-10-31T06:02:26;9.50;;;5.33;;
12956;SDS011;6543;48.836;10.092;2022-10-31T06:04:58;7.97;;;5.73;;
12956;SDS011;6543;48.836;10.092;2022-10-31T06:07:25;9.83;;;5.30;;
12956;SDS011;6543;48.836;10.092;2022-10-31T06:09:52;15.33;;;5.57;;
12956;SDS011;6543;48.836;10.092;2022-10-31T06:12:19;9.03;;;5.33;;
12956;SDS011;6543;48.836;10.092;2022-10-31T06:14:45;9.23;;;4.90;;
12956;SDS011;6543;48.836;10.092;2022-10-31T06:17:12;10.70;;;5.77;;
12956;SDS011;6543;48.836;10.092;2022-10-31T06:19:39;20.23;;;6.70;;
12956;SDS011;6543;48.836;10.092;2022-10-31T06:22:07;11.93;;;5.80;;
12956;SDS011;6543;48.836;10.092;2022-10-31T06:24:36;11.03;;;6.00;;
12956;SDS011;6543;48.836;10.092;2022-10-31T06:27:03;15.43;;;5.80;;
12956;SDS011;6543;48.836;10.092;2022-10-31T06:29:30;16.33;;;6.13;;
12956;SDS011;6543;48.836;10.092;2022-10-31T06:31:58;19.93;;;5.80;;
12956;SDS011;6543;48.836;10.092;2022-10-31T06:34:24;18.70;;;6.40;;
12956;SDS011;6543;48.836;10.092;2022-10-31T06:36:51;8.03;;;5.10;;
12956;SDS011;6543;48.836;10.092;2022-10-31T06:39:19;12.63;;;6.30;;
12956;SDS011;6543;48.836;10.092;2022-10-31T06:41:46;9.40;;;4.80;;
12956;SDS011;6543;48.836;10.092;2022-10-31T06:44:13;10.43;;;4.47;;
12956;SDS011;6543;48.836;10.092;2022-10-31T06:46:40;9.40;;;4.83;;
12956;SDS011;6543;48.836;10.092;2022-10-31T06:49:07;11.80;;;4.70;;
12956;SDS011;6543;48.836;10.092;2022-10-31T06:51:34;6.90;;;4.63;;
12956;SDS011;6543;48.836;10.092;2022-10-31T06:54:01;9.63;;;4.33;;
12956;SDS011;6543;48.836;10.092;2022-10-31T06:56:29;12.10;;;5.17;;
12956;SDS011;6543;48.836;10.092;2022-10-31T06:58:56;10.10;;;4.50;;
12956;SDS011;6543;48.836;10.092;2022-10-31T07:01:23;10.17;;;4.93;;
12956;SDS011;6543;48.836;10.092;2022-10-31T07:03:50;11.00;;;5.00;;
12956;SDS011;6543;48.836;10.092;2022-10-31T07:06:17;10.20;;;4.87;;
12956;SDS011;6543;48.836;10.092;2022-10-31T07:08:43;12.10;;;5.00;;
12956;SDS011;6543;48.836;10.092;2022-10-31T07:11:10;12.03;;;4.80;;
12956;SDS011;6543;48.836;10.092;2022-10-31T07:13:38;14.77;;;5.30;;
12956;SDS011;6543;48.836;10.092;2022-10-31T07:16:06;8.47;;;4.37;;
12956;SDS011;6543;48.836;10.092;2022-10-31T07:18:35;7.47;;;4.03;;
12956;SDS011;6543;48.836;10.092;2022-10-31T07:21:02;10.30;;;4.33;;
12956;SDS011;6543;48.836;10.092;2022-10-31T07:23:29;8.07;;;3.80;;
12956;SDS011;6543;48.836;10.092;2022-10-31T07:25:56;10.57;;;4.17;;
12956;SDS011;6543;48.836;10.092;2022-10-31T07:28:24;9.27;;;3.90;;
12956;SDS011;6543;48.836;10.092;2022-10-31T07:30:53;7.07;;;3.53;;
12956;SDS011;6543;48.836;10.092;2022-10-31T07:33:22;5.43;;;3.80;;
12956;SDS011;6543;48.836;10.092;2022-10-31T07:35:51;10.13;;;4.10;;
12956;SDS011;6543;48.836;10.092;2022-10-31T07:38:18;10.30;;;3.97;;
12956;SDS011;6543;48.836;10.092;2022-10-31T07:40:48;11.90;;;4.10;;
12956;SDS011;6543;48.836;10.092;2022-10-31T07:43:16;13.70;;;3.23;;
12956;SDS011;6543;48.836;10.092;2022-10-31T07:45:43;7.90;;;3.00;;
12956;SDS011;6543;48.836;10.092;2022-10-31T07:48:16;8.67;;;3.00;;
12956;SDS011;6543;48.836;10.092;2022-10-31T07:50:42;8.97;;;3.83;;
12956;SDS011;6543;48.836;10.092;2022-10-31T07:53:10;12.07;;;3.87;;
12956;SDS011;6543;48.836;10.092;2022-10-31T07:55:38;8.70;;;3.70;;
12956;SDS011;6543;48.836;10.092;2022-10-31T07:58:05;7.40;;;3.77;;
12956;SDS011;6543;48.836;10.092;2022-10-31T08:00:34;13.73;;;4.30;;
12956;SDS011;6543;48.836;10.092;2022-10-31T08:03:03;13.87;;;5.00;;
12956;SDS011;6543;48.836;10.092;2022-10-31T08:05:32;12.03;;;4.23;;
12956;SDS011;6543;48.836;10.092;2022-10-31T08:07:59;7.67;;;3.90;;
12956;SDS011;6543;48.836;10.092;2022-10-31T08:10:27;6.90;;;3.70;;
12956;SDS011;6543;48.836;10.092;2022-10-31T08:12:54;9.53;;;4.03;;
12956;SDS011;6543;48.836;10.092;2022-10-31T08:15:23;10.50;;;3.63;;
12956;SDS011;6543;48.836;10.092;2022-10-31T08:17:50;6.87;;;3.30;;
12956;SDS011;6543;48.836;10.092;2022-10-31T08:20:17;14.73;;;3.27;;
12956;SDS011;6543;48.836;10.092;2022-10-31T08:22:53;11.53;;;3.70;;
12956;SDS011;6543;48.836;10.092;2022-10-31T08:25:21;9.73;;;4.27;;
12956;SDS011;6543;48.836;10.092;2022-10-31T08:27:48;8.47;;;4.33;;
12956;SDS011;6543;48.836;10.092;2022-10-31T08:30:16;12.80;;;5.37;;
12956;SDS011;6543;48.836;10.092;2022-10-31T08:32:43;13.27;;;5.17;;
12956;SDS011;6543;48.836;10.092;2022-10-31T08:35:10;10.33;;;4.57;;
12956;SDS011;6543;48.836;10.092;2022-10-31T08:37:37;10.40;;;5.03;;
12956;SDS011;6543;48.836;10.092;2022-10-31T08:40:06;10.87;;;3.87;;
12956;SDS011;6543;48.836;10.092;2022-10-31T08:42:33;9.97;;;5.10;;
12956;SDS011;6543;48.836;10.092;2022-10-31T08:45:01;8.57;;;4.87;;
12956;SDS011;6543;48.836;10.092;2022-10-31T08:47:28;16.00;;;5.27;;
12956;SDS011;6543;48.836;10.092;2022-10-31T08:49:55;9.23;;;4.07;;
12956;SDS011;6543;48.836;10.092;2022-10-31T08:52:22;13.80;;;5.27;;
12956;SDS011;6543;48.836;10.092;2022-10-31T08:54:50;9.00;;;5.00;;
12956;SDS011;6543;48.836;10.092;2022-10-31T08:57:18;14.33;;;4.33;;
12956;SDS011;6543;48.836;10.092;2022-10-31T08:59:45;9.67;;;4.70;;
12956;SDS011;6543;48.836;10.092;2022-10-31T09:02:12;11.87;;;5.07;;
12956;SDS011;6543;48.836;10.092;2022-10-31T09:04:39;11.73;;;4.73;;
12956;SDS011;6543;48.836;10.092;2022-10-31T09:07:05;15.77;;;5.10;;
12956;SDS011;6543;48.836;10.092;2022-10-31T09:09:32;8.87;;;4.30;;
12956;SDS011;6543;48.836;10.092;2022-10-31T09:11:59;10.47;;;4.33;;
12956;SDS011;6543;48.836;10.092;2022-10-31T09:14:27;10.00;;;4.73;;
12956;SDS011;6543;48.836;10.092;2022-10-31T09:16:54;14.37;;;4.80;;
12956;SDS011;6543;48.836;10.092;2022-10-31T09:19:21;13.87;;;4.67;;
12956;SDS011;6543;48.836;10.092;2022-10-31T09:21:51;13.33;;;4.60;;
12956;SDS011;6543;48.836;10.092;2022-10-31T09:24:18;15.90;;;4.53;;
12956;SDS011;6543;48.836;10.092;2022-10-31T09:26:45;17.50;;;5.03;;
12956;SDS011;6543;48.836;10.092;2022-10-31T09:29:12;11.00;;;4.33;;
12956;SDS011;6543;48.836;10.092;2022-10-31T09:31:41;11.82;;;4.80;;
12956;SDS011;6543;48.836;10.092;2022-10-31T09:34:08;16.50;;;5.37;;
12956;SDS011;6543;48.836;10.092;2022-10-31T09:36:34;8.77;;;5.03;;
12956;SDS011;6543;48.836;10.092;2022-10-31T09:39:02;10.67;;;4.23;;
12956;SDS011;6543;48.836;10.092;2022-10-31T09:41:30;15.53;;;6.03;;
12956;SDS011;6543;48.836;10.092;2022-10-31T09:44:07;17.60;;;5.23;;
12956;SDS011;6543;48.836;10.092;2022-10-31T09:46:44;23.10;;;9.00;;
12956;SDS011;6543;48.836;10.092;2022-10-31T09:49:24;18.83;;;6.10;;
12956;SDS011;6543;48.836;10.092;2022-10-31T09:52:03;14.98;;;6.35;;
12956;SDS011;6543;48.836;10.092;2022-10-31T09:54:37;16.87;;;6.10;;
12956;SDS011;6543;48.836;10.092;2022-10-31T09:57:10;11.03;;;5.83;;
12956;SDS011;6543;48.836;10.092;2022-10-31T09:59:41;15.00;;;5.40;;
12956;SDS011;6543;48.836;10.092;2022-10-31T10:02:13;12.37;;;6.00;;
12956;SDS011;6543;48.836;10.092;2022-10-31T10:04:46;15.13;;;7.00;;
12956;SDS011;6543;48.836;10.092;2022-10-31T10:07:20;17.53;;;6.37;;
12956;SDS011;6543;48.836;10.092;2022-10-31T10:09:53;15.70;;;6.40;;
12956;SDS011;6543;48.836;10.092;2022-10-31T10:12:22;18.97;;;7.40;;
12956;SDS011;6543;48.836;10.092;2022-10-31T10:15:02;17.30;;;7.10;;
12956;SDS011;6543;48.836;10.092;2022-10-31T10:17:47;16.63;;;6.40;;
12956;SDS011;6543;48.836;10.092;2022-10-31T10:20:27;17.43;;;6.53;;
12956;SDS011;6543;48.836;10.092;2022-10-31T10:23:02;19.97;;;8.10;;
12956;SDS011;6543;48.836;10.092;2022-10-31T10:25:41;20.20;;;7.10;;
12956;SDS011;6543;48.836;10.092;2022-10-31T10:28:15;15.67;;;6.80;;
12956;SDS011;6543;48.836;10.092;2022-10-31T10:30:46;19.52;;;7.03;;
12956;SDS011;6543;48.836;10.092;2022-10-31T10:33:21;19.20;;;6.40;;
12956;SDS011;6543;48.836;10.092;2022-10-31T10:35:55;14.23;;;7.45;;
12956;SDS011;6543;48.836;10.092;2022-10-31T10:38:26;15.95;;;6.50;;
12956;SDS011;6543;48.836;10.092;2022-10-31T10:40:58;20.30;;;6.80;;
12956;SDS011;6543;48.836;10.092;2022-10-31T10:43:29;13.82;;;6.15;;
12956;SDS011;6543;48.836;10.092;2022-10-31T10:46:03;15.00;;;6.10;;
12956;SDS011;6543;48.836;10.092;2022-10-31T10:48:59;16.67;;;7.43;;
12956;SDS011;6543;48.836;10.092;2022-10-31T10:51:32;15.82;;;6.60;;
12956;SDS011;6543;48.836;10.092;2022-10-31T10:54:09;21.63;;;6.80;;
12956;SDS011;6543;48.836;10.092;2022-10-31T10:57:04;19.20;;;6.90;;
12956;SDS011;6543;48.836;10.092;2022-10-31T10:59:46;16.60;;;6.15;;
12956;SDS011;6543;48.836;10.092;2022-10-31T11:02:16;13.52;;;5.72;;
12956;SDS011;6543;48.836;10.092;2022-10-31T11:04:47;16.50;;;6.20;;
12956;SDS011;6543;48.836;10.092;2022-10-31T11:07:16;17.73;;;6.68;;
12956;SDS011;6543;48.836;10.092;2022-10-31T11:09:43;18.83;;;6.30;;
12956;SDS011;6543;48.836;10.092;2022-10-31T11:12:15;15.40;;;6.13;;
12956;SDS011;6543;48.836;10.092;2022-10-31T11:14:46;15.77;;;6.38;;
12956;SDS011;6543;48.836;10.092;2022-10-31T11:17:19;16.15;;;5.72;;
12956;SDS011;6543;48.836;10.092;2022-10-31T11:20:00;13.02;;;6.05;;
12956;SDS011;6543;48.836;10.092;2022-10-31T11:22:29;15.13;;;5.60;;
12956;SDS011;6543;48.836;10.092;2022-10-31T11:24:57;18.90;;;7.03;;
12956;SDS011;6543;48.836;10.092;2022-10-31T11:27:24;17.33;;;6.43;;
12956;SDS011;6543;48.836;10.092;2022-10-31T11:29:52;18.92;;;6.40;;
12956;SDS011;6543;48.836;10.092;2022-10-31T11:32:29;11.70;;;5.55;;
12956;SDS011;6543;48.836;10.092;2022-10-31T11:34:56;15.98;;;7.18;;
12956;SDS011;6543;48.836;10.092;2022-10-31T11:37:28;14.07;;;6.35;;
12956;SDS011;6543;48.836;10.092;2022-10-31T11:40:00;14.88;;;5.88;;
12956;SDS011;6543;48.836;10.092;2022-10-31T11:42:34;16.52;;;7.38;;
12956;SDS011;6543;48.836;10.092;2022-10-31T11:45:06;10.52;;;5.70;;
12956;SDS011;6543;48.836;10.092;2022-10-31T11:47:41;15.57;;;6.85;;
12956;SDS011;6543;48.836;10.092;2022-10-31T11:50:11;20.33;;;8.65;;
12956;SDS011;6543;48.836;10.092;2022-10-31T11:52:46;16.92;;;6.13;;
12956;SDS011;6543;48.836;10.092;2022-10-31T11:55:14;21.05;;;6.32;;
12956;SDS011;6543;48.836;10.092;2022-10-31T11:57:44;10.18;;;6.47;;
12956;SDS011;6543;48.836;10.092;2022-10-31T12:00:19;12.93;;;5.78;;
12956;SDS011;6543;48.836;10.092;2022-10-31T12:02:48;17.08;;;7.03;;
12956;SDS011;6543;48.836;10.092;2022-10-31T12:05:17;18.08;;;7.40;;
12956;SDS011;6543;48.836;10.092;2022-10-31T12:07:47;15.98;;;6.55;;
12956;SDS011;6543;48.836;10.092;2022-10-31T12:10:15;11.77;;;5.57;;
12956;SDS011;6543;48.836;10.092;2022-10-31T12:12:48;14.40;;;6.45;;
12956;SDS011;6543;48.836;10.092;2022-10-31T12:15:27;18.05;;;6.53;;
12956;SDS011;6543;48.836;10.092;2022-10-31T12:18:03;18.73;;;7.35;;
12956;SDS011;6543;48.836;10.092;2022-10-31T12:20:50;13.13;;;5.90;;
12956;SDS011;6543;48.836;10.092;2022-10-31T12:23:25;19.08;;;7.07;;
12956;SDS011;6543;48.836;10.092;2022-10-31T12:26:06;13.73;;;6.35;;
12956;SDS011;6543;48.836;10.092;2022-10-31T12:28:44;14.48;;;6.22;;
12956;SDS011;6543;48.836;10.092;2022-10-31T12:34:32;16.05;;;6.60;;
12956;SDS011;6543;48.836;10.092;2022-10-31T12:37:25;20.38;;;6.10;;
12956;SDS011;6543;48.836;10.092;2022-10-31T12:40:05;17.77;;;6.75;;
12956;SDS011;6543;48.836;10.092;2022-10-31T12:42:49;17.10;;;5.95;;
12956;SDS011;6543;48.836;10.092;2022-10-31T12:45:31;13.23;;;5.10;;
12956;SDS011;6543;48.836;10.092;2022-10-31T12:51:11;14.90;;;5.43;;
12956;SDS011;6543;48.836;10.092;2022-10-31T12:53:49;16.33;;;5.20;;
12956;SDS011;6543;48.836;10.092;2022-10-31T12:56:30;15.27;;;5.15;;
12956;SDS011;6543;48.836;10.092;2022-10-31T12:59:08;16.67;;;5.47;;
12956;SDS011;6543;48.836;10.092;2022-10-31T13:01:41;12.50;;;5.35;;
12956;SDS011;6543;48.836;10.092;2022-10-31T13:04:15;15.00;;;5.85;;
12956;SDS011;6543;48.836;10.092;2022-10-31T13:06:48;20.05;;;5.97;;
12956;SDS011;6543;48.836;10.092;2022-10-31T13:09:17;17.60;;;6.38;;
12956;SDS011;6543;48.836;10.092;2022-10-31T13:11:51;12.57;;;6.15;;
12956;SDS011;6543;48.836;10.092;2022-10-31T13:14:23;19.08;;;6.03;;
12956;SDS011;6543;48.836;10.092;2022-10-31T13:16:53;17.45;;;6.40;;
12956;SDS011;6543;48.836;10.092;2022-10-31T13:19:22;24.80;;;5.70;;
12956;SDS011;6543;48.836;10.092;2022-10-31T13:21:54;15.95;;;7.00;;
12956;SDS011;6543;48.836;10.092;2022-10-31T13:24:26;20.75;;;6.30;;
12956;SDS011;6543;48.836;10.092;2022-10-31T13:27:01;15.00;;;7.38;;
12956;SDS011;6543;48.836;10.092;2022-10-31T13:29:36;14.55;;;5.80;;
12956;SDS011;6543;48.836;10.092;2022-10-31T13:32:08;19.02;;;6.32;;
12956;SDS011;6543;48.836;10.092;2022-10-31T13:34:37;20.35;;;6.60;;
12956;SDS011;6543;48.836;10.092;2022-10-31T13:37:09;17.15;;;6.75;;
12956;SDS011;6543;48.836;10.092;2022-10-31T13:39:46;11.80;;;6.38;;
12956;SDS011;6543;48.836;10.092;2022-10-31T13:42:25;15.13;;;6.78;;
12956;SDS011;6543;48.836;10.092;2022-10-31T13:45:14;16.80;;;6.90;;
12956;SDS011;6543;48.836;10.092;2022-10-31T13:47:42;22.67;;;7.28;;
12956;SDS011;6543;48.836;10.092;2022-10-31T13:50:20;17.80;;;6.65;;
12956;SDS011;6543;48.836;10.092;2022-10-31T13:52:48;19.52;;;7.47;;
12956;SDS011;6543;48.836;10.092;2022-10-31T13:55:35;16.45;;;7.43;;
12956;SDS011;6543;48.836;10.092;2022-10-31T13:58:16;17.40;;;7.38;;
12956;SDS011;6543;48.836;10.092;2022-10-31T14:00:57;29.20;;;10.13;;
12956;SDS011;6543;48.836;10.092;2022-10-31T14:03:32;15.65;;;7.90;;
12956;SDS011;6543;48.836;10.092;2022-10-31T14:06:01;17.52;;;7.95;;
12956;SDS011;6543;48.836;10.092;2022-10-31T14:08:29;14.60;;;8.23;;
12956;SDS011;6543;48.836;10.092;2022-10-31T14:10:59;17.75;;;8.45;;
12956;SDS011;6543;48.836;10.092;2022-10-31T14:13:29;21.58;;;8.32;;
12956;SDS011;6543;48.836;10.092;2022-10-31T14:16:00;25.50;;;8.60;;
12956;SDS011;6543;48.836;10.092;2022-10-31T14:18:30;20.48;;;8.27;;
12956;SDS011;6543;48.836;10.092;2022-10-31T14:21:00;22.67;;;8.68;;
12956;SDS011;6543;48.836;10.092;2022-10-31T14:23:35;19.80;;;8.93;;
12956;SDS011;6543;48.836;10.092;2022-10-31T14:26:19;24.38;;;9.25;;
12956;SDS011;6543;48.836;10.092;2022-10-31T14:28:57;22.73;;;8.30;;
12956;SDS011;6543;48.836;10.092;2022-10-31T14:31:27;20.77;;;7.75;;
12956;SDS011;6543;48.836;10.092;2022-10-31T14:34:03;18.93;;;9.60;;
12956;SDS011;6543;48.836;10.092;2022-10-31T14:36:46;20.80;;;8.23;;
12956;SDS011;6543;48.836;10.092;2022-10-31T14:39:49;17.23;;;8.63;;
12956;SDS011;6543;48.836;10.092;2022-10-31T14:42:28;18.27;;;8.60;;
12956;SDS011;6543;48.836;10.092;2022-10-31T14:45:12;23.65;;;9.75;;
12956;SDS011;6543;48.836;10.092;2022-10-31T14:47:51;23.63;;;9.07;;
12956;SDS011;6543;48.836;10.092;2022-10-31T14:50:36;26.75;;;9.25;;
12956;SDS011;6543;48.836;10.092;2022-10-31T14:53:11;22.10;;;8.20;;
12956;SDS011;6543;48.836;10.092;2022-10-31T14:55:44;20.08;;;8.48;;
12956;SDS011;6543;48.836;10.092;2022-10-31T14:58:15;22.65;;;8.82;;
12956;SDS011;6543;48.836;10.092;2022-10-31T15:00:49;18.40;;;8.77;;
12956;SDS011;6543;48.836;10.092;2022-10-31T15:03:22;22.93;;;8.90;;
12956;SDS011;6543;48.836;10.092;2022-10-31T15:05:56;20.52;;;8.63;;
12956;SDS011;6543;48.836;10.092;2022-10-31T15:08:27;22.48;;;8.68;;
12956;SDS011;6543;48.836;10.092;2022-10-31T15:11:02;24.23;;;8.40;;
12956;SDS011;6543;48.836;10.092;2022-10-31T15:13:35;18.48;;;8.00;;